Terminal Aerodrome Forecast
Issued by NWS

Home | Current Version | Previous Version | Text Only | Print | Product List | Glossary On
Versions: 1 2 3 4 5 6 7 8 9 10 11 12 13 14
208
FTUS45 KRIW 100622 AAA
TAFCPR
TAF AMD
KCPR 100622Z 1006/1106 VRB05KT P6SM SCT100 BKN200
     FM100730 23015G25KT P6SM SCT100 BKN200
     FM101600 22026G36KT P6SM BKN100=

USA.gov is the U.S. government's official web portal to all federal, state and local government web resources and services.